sensor_id;sensor_type;location;lat;lon;timestamp;temperature;humidity
41262;DHT22;29629;52.532;13.352;2023-03-01T00:00:14;1.90;99.90
41262;DHT22;29629;52.532;13.352;2023-03-01T00:02:41;1.90;99.90
41262;DHT22;29629;52.532;13.352;2023-03-01T00:05:07;1.80;99.90
41262;DHT22;29629;52.532;13.352;2023-03-01T00:07:34;1.80;99.90
41262;DHT22;29629;52.532;13.352;2023-03-01T00:10:01;1.70;99.90
41262;DHT22;29629;52.532;13.352;2023-03-01T00:12:29;1.70;99.90
41262;DHT22;29629;52.532;13.352;2023-03-01T00:14:57;1.70;99.90
41262;DHT22;29629;52.532;13.352;2023-03-01T00:17:24;1.80;99.90
41262;DHT22;29629;52.532;13.352;2023-03-01T00:19:51;1.60;99.90
41262;DHT22;29629;52.532;13.352;2023-03-01T00:22:17;1.50;99.90
41262;DHT22;29629;52.532;13.352;2023-03-01T00:24:44;1.50;99.90
41262;DHT22;29629;52.532;13.352;2023-03-01T00:27:11;1.50;99.90
41262;DHT22;29629;52.532;13.352;2023-03-01T00:29:39;1.40;99.90
41262;DHT22;29629;52.532;13.352;2023-03-01T00:32:06;1.40;99.90
41262;DHT22;29629;52.532;13.352;2023-03-01T00:34:32;1.50;99.90
41262;DHT22;29629;52.532;13.352;2023-03-01T00:36:59;1.40;99.90
41262;DHT22;29629;52.532;13.352;2023-03-01T00:39:31;1.50;99.90
41262;DHT22;29629;52.532;13.352;2023-03-01T00:41:57;1.60;99.90
41262;DHT22;29629;52.532;13.352;2023-03-01T00:44:24;1.60;99.90
41262;DHT22;29629;52.532;13.352;2023-03-01T00:46:52;1.50;99.90
41262;DHT22;29629;52.532;13.352;2023-03-01T00:49:19;1.50;99.90
41262;DHT22;29629;52.532;13.352;2023-03-01T00:51:46;1.60;99.90
41262;DHT22;29629;52.532;13.352;2023-03-01T00:54:12;1.50;99.90
41262;DHT22;29629;52.532;13.352;2023-03-01T00:56:39;1.60;99.90
41262;DHT22;29629;52.532;13.352;2023-03-01T00:59:06;1.50;99.90
41262;DHT22;29629;52.532;13.352;2023-03-01T01:01:32;1.50;99.90
41262;DHT22;29629;52.532;13.352;2023-03-01T01:04:02;1.50;99.90
41262;DHT22;29629;52.532;13.352;2023-03-01T01:06:31;1.50;99.90
41262;DHT22;29629;52.532;13.352;2023-03-01T01:08:58;1.50;99.90
41262;DHT22;29629;52.532;13.352;2023-03-01T01:11:26;1.40;99.90
41262;DHT22;29629;52.532;13.352;2023-03-01T01:13:53;1.40;99.90
41262;DHT22;29629;52.532;13.352;2023-03-01T01:16:21;1.20;99.90
41262;DHT22;29629;52.532;13.352;2023-03-01T01:18:47;1.20;99.90
41262;DHT22;29629;52.532;13.352;2023-03-01T01:21:16;1.10;99.90
41262;DHT22;29629;52.532;13.352;2023-03-01T01:23:44;1.20;99.90
41262;DHT22;29629;52.532;13.352;2023-03-01T01:26:12;1.20;99.90
41262;DHT22;29629;52.532;13.352;2023-03-01T01:28:39;1.40;99.90
41262;DHT22;29629;52.532;13.352;2023-03-01T01:31:06;1.30;99.90
41262;DHT22;29629;52.532;13.352;2023-03-01T01:33:33;1.20;99.90
41262;DHT22;29629;52.532;13.352;2023-03-01T01:36:00;1.10;99.90
41262;DHT22;29629;52.532;13.352;2023-03-01T01:38:28;1.00;99.90
41262;DHT22;29629;52.532;13.352;2023-03-01T01:40:54;1.10;99.90
41262;DHT22;29629;52.532;13.352;2023-03-01T01:43:22;1.10;99.90
41262;DHT22;29629;52.532;13.352;2023-03-01T01:45:49;1.10;99.90
41262;DHT22;29629;52.532;13.352;2023-03-01T01:48:16;1.10;99.90
41262;DHT22;29629;52.532;13.352;2023-03-01T01:50:45;1.10;99.90
41262;DHT22;29629;52.532;13.352;2023-03-01T01:53:16;1.10;99.90
41262;DHT22;29629;52.532;13.352;2023-03-01T01:55:47;1.00;99.90
41262;DHT22;29629;52.532;13.352;2023-03-01T01:58:16;0.90;99.90
41262;DHT22;29629;52.532;13.352;2023-03-01T02:00:44;0.90;99.90
41262;DHT22;29629;52.532;13.352;2023-03-01T02:03:11;0.80;99.90
41262;DHT22;29629;52.532;13.352;2023-03-01T02:05:41;0.80;99.90
41262;DHT22;29629;52.532;13.352;2023-03-01T02:08:10;0.80;99.90
41262;DHT22;29629;52.532;13.352;2023-03-01T02:10:37;0.80;99.90
41262;DHT22;29629;52.532;13.352;2023-03-01T02:13:06;0.80;99.90
41262;DHT22;29629;52.532;13.352;2023-03-01T02:15:33;0.80;99.90
41262;DHT22;29629;52.532;13.352;2023-03-01T02:18:00;0.90;99.90
41262;DHT22;29629;52.532;13.352;2023-03-01T02:20:29;1.00;99.90
41262;DHT22;29629;52.532;13.352;2023-03-01T02:22:59;1.00;99.90
41262;DHT22;29629;52.532;13.352;2023-03-01T02:25:29;0.90;99.90
41262;DHT22;29629;52.532;13.352;2023-03-01T02:27:58;0.90;99.90
41262;DHT22;29629;52.532;13.352;2023-03-01T02:30:30;1.00;99.90
41262;DHT22;29629;52.532;13.352;2023-03-01T02:32:57;1.10;99.90
41262;DHT22;29629;52.532;13.352;2023-03-01T02:35:28;0.90;99.90
41262;DHT22;29629;52.532;13.352;2023-03-01T02:37:55;0.90;99.90
41262;DHT22;29629;52.532;13.352;2023-03-01T02:40:22;0.80;99.90
41262;DHT22;29629;52.532;13.352;2023-03-01T02:42:50;0.80;99.90
41262;DHT22;29629;52.532;13.352;2023-03-01T02:45:18;0.90;99.90
41262;DHT22;29629;52.532;13.352;2023-03-01T02:47:46;0.90;99.90
41262;DHT22;29629;52.532;13.352;2023-03-01T02:50:15;0.80;99.90
41262;DHT22;29629;52.532;13.352;2023-03-01T02:52:45;0.80;99.90
41262;DHT22;29629;52.532;13.352;2023-03-01T02:55:14;0.70;99.90
41262;DHT22;29629;52.532;13.352;2023-03-01T02:57:43;0.60;99.90
41262;DHT22;29629;52.532;13.352;2023-03-01T03:00:11;0.60;99.90
41262;DHT22;29629;52.532;13.352;2023-03-01T03:02:45;0.60;99.90
41262;DHT22;29629;52.532;13.352;2023-03-01T03:05:13;0.50;99.90
41262;DHT22;29629;52.532;13.352;2023-03-01T03:07:40;0.60;99.90
41262;DHT22;29629;52.532;13.352;2023-03-01T03:10:13;0.60;99.90
41262;DHT22;29629;52.532;13.352;2023-03-01T03:12:40;0.60;99.90
41262;DHT22;29629;52.532;13.352;2023-03-01T03:15:08;0.60;99.90
41262;DHT22;29629;52.532;13.352;2023-03-01T03:17:35;0.60;99.90
41262;DHT22;29629;52.532;13.352;2023-03-01T03:20:04;0.50;99.90
41262;DHT22;29629;52.532;13.352;2023-03-01T03:22:31;0.50;99.90
41262;DHT22;29629;52.532;13.352;2023-03-01T03:24:59;0.50;99.90
41262;DHT22;29629;52.532;13.352;2023-03-01T03:27:26;0.60;99.90
41262;DHT22;29629;52.532;13.352;2023-03-01T03:29:54;0.40;99.90
41262;DHT22;29629;52.532;13.352;2023-03-01T03:32:20;0.50;99.90
41262;DHT22;29629;52.532;13.352;2023-03-01T03:34:47;0.50;99.90
41262;DHT22;29629;52.532;13.352;2023-03-01T03:37:15;0.50;99.90
41262;DHT22;29629;52.532;13.352;2023-03-01T03:39:56;0.60;99.90
41262;DHT22;29629;52.532;13.352;2023-03-01T03:42:23;0.50;99.90
41262;DHT22;29629;52.532;13.352;2023-03-01T03:44:50;0.50;99.90
41262;DHT22;29629;52.532;13.352;2023-03-01T03:47:16;0.50;99.90
41262;DHT22;29629;52.532;13.352;2023-03-01T03:49:43;0.50;99.90
41262;DHT22;29629;52.532;13.352;2023-03-01T03:52:10;0.50;99.90
41262;DHT22;29629;52.532;13.352;2023-03-01T03:54:40;0.40;99.90
41262;DHT22;29629;52.532;13.352;2023-03-01T03:57:07;0.50;99.90
41262;DHT22;29629;52.532;13.352;2023-03-01T03:59:34;0.40;99.90
41262;DHT22;29629;52.532;13.352;2023-03-01T04:02:00;0.40;99.90
41262;DHT22;29629;52.532;13.352;2023-03-01T04:04:27;0.40;99.90
41262;DHT22;29629;52.532;13.352;2023-03-01T04:06:54;0.40;99.90
41262;DHT22;29629;52.532;13.352;2023-03-01T04:09:21;0.30;99.90
41262;DHT22;29629;52.532;13.352;2023-03-01T04:11:49;0.30;99.90
41262;DHT22;29629;52.532;13.352;2023-03-01T04:14:15;0.20;99.90
41262;DHT22;29629;52.532;13.352;2023-03-01T04:16:42;0.20;99.90
41262;DHT22;29629;52.532;13.352;2023-03-01T04:19:09;0.20;99.90
41262;DHT22;29629;52.532;13.352;2023-03-01T04:21:35;0.20;99.90
41262;DHT22;29629;52.532;13.352;2023-03-01T04:24:03;0.20;99.90
41262;DHT22;29629;52.532;13.352;2023-03-01T04:26:29;0.30;99.90
41262;DHT22;29629;52.532;13.352;2023-03-01T04:28:57;0.20;99.90
41262;DHT22;29629;52.532;13.352;2023-03-01T04:31:24;0.20;99.90
41262;DHT22;29629;52.532;13.352;2023-03-01T04:33:52;0.20;99.90
41262;DHT22;29629;52.532;13.352;2023-03-01T04:36:19;0.20;99.90
41262;DHT22;29629;52.532;13.352;2023-03-01T04:38:47;0.30;99.90
41262;DHT22;29629;52.532;13.352;2023-03-01T04:41:14;0.20;99.90
41262;DHT22;29629;52.532;13.352;2023-03-01T04:43:41;0.10;99.90
41262;DHT22;29629;52.532;13.352;2023-03-01T04:46:10;0.20;99.90
41262;DHT22;29629;52.532;13.352;2023-03-01T04:48:38;0.10;99.90
41262;DHT22;29629;52.532;13.352;2023-03-01T04:51:05;0.10;99.90
41262;DHT22;29629;52.532;13.352;2023-03-01T04:53:33;0.10;99.90
41262;DHT22;29629;52.532;13.352;2023-03-01T04:56:01;0.10;99.90
41262;DHT22;29629;52.532;13.352;2023-03-01T04:58:28;0.00;99.90
41262;DHT22;29629;52.532;13.352;2023-03-01T05:00:55;0.20;99.90
41262;DHT22;29629;52.532;13.352;2023-03-01T05:03:23;0.20;99.90
41262;DHT22;29629;52.532;13.352;2023-03-01T05:05:50;0.20;99.90
41262;DHT22;29629;52.532;13.352;2023-03-01T05:08:18;0.40;99.90
41262;DHT22;29629;52.532;13.352;2023-03-01T05:10:46;0.40;99.90
41262;DHT22;29629;52.532;13.352;2023-03-01T05:13:13;0.40;99.90
41262;DHT22;29629;52.532;13.352;2023-03-01T05:15:46;0.40;99.90
41262;DHT22;29629;52.532;13.352;2023-03-01T05:18:13;0.30;99.90
41262;DHT22;29629;52.532;13.352;2023-03-01T05:20:41;0.30;99.90
41262;DHT22;29629;52.532;13.352;2023-03-01T05:23:08;0.20;99.90
41262;DHT22;29629;52.532;13.352;2023-03-01T05:25:34;0.10;99.90
41262;DHT22;29629;52.532;13.352;2023-03-01T05:28:06;0.20;99.90
41262;DHT22;29629;52.532;13.352;2023-03-01T05:30:34;0.10;99.90
41262;DHT22;29629;52.532;13.352;2023-03-01T05:33:01;-0.10;99.90
41262;DHT22;29629;52.532;13.352;2023-03-01T05:35:28;-0.20;99.90
41262;DHT22;29629;52.532;13.352;2023-03-01T05:37:59;-0.20;99.90
41262;DHT22;29629;52.532;13.352;2023-03-01T05:40:26;-0.30;99.90
41262;DHT22;29629;52.532;13.352;2023-03-01T05:42:53;-0.20;99.90
41262;DHT22;29629;52.532;13.352;2023-03-01T05:45:21;-0.20;99.90
41262;DHT22;29629;52.532;13.352;2023-03-01T05:47:48;-0.20;99.90
41262;DHT22;29629;52.532;13.352;2023-03-01T05:50:15;-0.10;99.90
41262;DHT22;29629;52.532;13.352;2023-03-01T05:52:44;0.00;99.90
41262;DHT22;29629;52.532;13.352;2023-03-01T05:55:12;0.00;99.90
41262;DHT22;29629;52.532;13.352;2023-03-01T05:57:39;0.00;99.90
41262;DHT22;29629;52.532;13.352;2023-03-01T06:00:06;0.10;99.90
41262;DHT22;29629;52.532;13.352;2023-03-01T06:02:33;0.10;99.90
41262;DHT22;29629;52.532;13.352;2023-03-01T06:05:00;0.20;99.90
41262;DHT22;29629;52.532;13.352;2023-03-01T06:07:27;0.20;99.90
41262;DHT22;29629;52.532;13.352;2023-03-01T06:09:54;0.20;99.90
41262;DHT22;29629;52.532;13.352;2023-03-01T06:12:22;0.30;99.90
41262;DHT22;29629;52.532;13.352;2023-03-01T06:14:49;0.30;99.90
41262;DHT22;29629;52.532;13.352;2023-03-01T06:17:16;0.30;99.90
41262;DHT22;29629;52.532;13.352;2023-03-01T06:19:42;0.30;99.90
41262;DHT22;29629;52.532;13.352;2023-03-01T06:22:09;0.30;99.90
41262;DHT22;29629;52.532;13.352;2023-03-01T06:24:36;0.30;99.90
41262;DHT22;29629;52.532;13.352;2023-03-01T06:27:02;0.20;99.90
41262;DHT22;29629;52.532;13.352;2023-03-01T06:29:31;0.20;99.90
41262;DHT22;29629;52.532;13.352;2023-03-01T06:31:57;0.20;99.90
41262;DHT22;29629;52.532;13.352;2023-03-01T06:34:24;0.30;99.90
41262;DHT22;29629;52.532;13.352;2023-03-01T06:36:51;0.30;99.90
41262;DHT22;29629;52.532;13.352;2023-03-01T06:39:18;0.30;99.90
41262;DHT22;29629;52.532;13.352;2023-03-01T06:41:44;0.30;99.90
41262;DHT22;29629;52.532;13.352;2023-03-01T06:44:11;0.30;99.90
41262;DHT22;29629;52.532;13.352;2023-03-01T06:46:40;0.40;99.90
41262;DHT22;29629;52.532;13.352;2023-03-01T06:49:06;0.50;99.90
41262;DHT22;29629;52.532;13.352;2023-03-01T06:51:35;0.50;99.90
41262;DHT22;29629;52.532;13.352;2023-03-01T06:54:02;0.50;99.90
41262;DHT22;29629;52.532;13.352;2023-03-01T06:56:29;0.60;99.90
41262;DHT22;29629;52.532;13.352;2023-03-01T06:58:56;0.80;99.90
41262;DHT22;29629;52.532;13.352;2023-03-01T07:01:22;0.80;99.90
41262;DHT22;29629;52.532;13.352;2023-03-01T07:03:50;1.00;99.90
41262;DHT22;29629;52.532;13.352;2023-03-01T07:06:17;1.20;99.90
41262;DHT22;29629;52.532;13.352;2023-03-01T07:08:44;1.20;99.90
41262;DHT22;29629;52.532;13.352;2023-03-01T07:11:11;1.20;99.90
41262;DHT22;29629;52.532;13.352;2023-03-01T07:13:38;1.60;99.90
41262;DHT22;29629;52.532;13.352;2023-03-01T07:16:05;1.70;99.90
41262;DHT22;29629;52.532;13.352;2023-03-01T07:18:31;1.70;99.90
41262;DHT22;29629;52.532;13.352;2023-03-01T07:21:00;1.90;99.90
41262;DHT22;29629;52.532;13.352;2023-03-01T07:23:29;2.00;99.90
41262;DHT22;29629;52.532;13.352;2023-03-01T07:25:56;2.20;99.90
41262;DHT22;29629;52.532;13.352;2023-03-01T07:28:23;2.50;99.90
41262;DHT22;29629;52.532;13.352;2023-03-01T07:30:50;2.40;99.90
41262;DHT22;29629;52.532;13.352;2023-03-01T07:33:17;2.40;99.90
41262;DHT22;29629;52.532;13.352;2023-03-01T07:35:43;2.80;99.90
41262;DHT22;29629;52.532;13.352;2023-03-01T07:38:11;2.90;99.90
41262;DHT22;29629;52.532;13.352;2023-03-01T07:40:38;2.90;99.90
41262;DHT22;29629;52.532;13.352;2023-03-01T07:43:05;3.00;99.90
41262;DHT22;29629;52.532;13.352;2023-03-01T07:45:32;3.20;99.90
41262;DHT22;29629;52.532;13.352;2023-03-01T07:47:59;3.60;99.90
41262;DHT22;29629;52.532;13.352;2023-03-01T07:50:25;3.80;99.90
41262;DHT22;29629;52.532;13.352;2023-03-01T07:52:52;3.90;99.90
41262;DHT22;29629;52.532;13.352;2023-03-01T07:55:20;3.90;99.90
41262;DHT22;29629;52.532;13.352;2023-03-01T07:57:47;3.70;99.90
41262;DHT22;29629;52.532;13.352;2023-03-01T08:00:13;3.90;99.90
41262;DHT22;29629;52.532;13.352;2023-03-01T08:02:40;4.10;99.90
41262;DHT22;29629;52.532;13.352;2023-03-01T08:05:07;4.00;99.90
41262;DHT22;29629;52.532;13.352;2023-03-01T08:07:34;3.90;99.90
41262;DHT22;29629;52.532;13.352;2023-03-01T08:10:01;4.10;99.90
41262;DHT22;29629;52.532;13.352;2023-03-01T08:12:29;4.30;99.90
41262;DHT22;29629;52.532;13.352;2023-03-01T08:14:55;4.40;99.90
41262;DHT22;29629;52.532;13.352;2023-03-01T08:17:23;4.70;99.90
41262;DHT22;29629;52.532;13.352;2023-03-01T08:19:49;4.90;99.90
41262;DHT22;29629;52.532;13.352;2023-03-01T08:22:16;4.90;99.90
41262;DHT22;29629;52.532;13.352;2023-03-01T08:24:43;5.00;99.90
41262;DHT22;29629;52.532;13.352;2023-03-01T08:27:10;4.90;99.90
41262;DHT22;29629;52.532;13.352;2023-03-01T08:29:38;5.00;99.90
41262;DHT22;29629;52.532;13.352;2023-03-01T08:32:05;5.30;99.90
41262;DHT22;29629;52.532;13.352;2023-03-01T08:34:32;5.40;99.90
41262;DHT22;29629;52.532;13.352;2023-03-01T08:37:00;5.50;99.90
41262;DHT22;29629;52.532;13.352;2023-03-01T08:39:27;5.50;99.90
41262;DHT22;29629;52.532;13.352;2023-03-01T08:41:54;5.70;99.90
41262;DHT22;29629;52.532;13.352;2023-03-01T08:44:21;6.10;99.90
41262;DHT22;29629;52.532;13.352;2023-03-01T08:46:49;6.20;99.90
41262;DHT22;29629;52.532;13.352;2023-03-01T08:49:17;6.20;99.90
41262;DHT22;29629;52.532;13.352;2023-03-01T08:51:45;6.40;99.90
41262;DHT22;29629;52.532;13.352;2023-03-01T08:54:12;6.70;99.90
41262;DHT22;29629;52.532;13.352;2023-03-01T08:56:40;6.90;99.90
41262;DHT22;29629;52.532;13.352;2023-03-01T08:59:07;7.20;99.90
41262;DHT22;29629;52.532;13.352;2023-03-01T09:01:34;7.20;99.90
41262;DHT22;29629;52.532;13.352;2023-03-01T09:04:03;7.40;99.90
41262;DHT22;29629;52.532;13.352;2023-03-01T09:06:30;7.90;99.90
41262;DHT22;29629;52.532;13.352;2023-03-01T09:08:57;8.20;99.90
41262;DHT22;29629;52.532;13.352;2023-03-01T09:11:23;8.60;99.90
41262;DHT22;29629;52.532;13.352;2023-03-01T09:13:50;9.10;99.90
41262;DHT22;29629;52.532;13.352;2023-03-01T09:16:17;9.30;99.90
41262;DHT22;29629;52.532;13.352;2023-03-01T09:18:45;11.90;99.90
41262;DHT22;29629;52.532;13.352;2023-03-01T09:21:13;15.60;99.90
41262;DHT22;29629;52.532;13.352;2023-03-01T09:23:41;17.10;99.90
41262;DHT22;29629;52.532;13.352;2023-03-01T09:26:08;18.30;96.20
41262;DHT22;29629;52.532;13.352;2023-03-01T09:28:36;18.60;94.00
41262;DHT22;29629;52.532;13.352;2023-03-01T09:31:03;19.00;91.60
41262;DHT22;29629;52.532;13.352;2023-03-01T09:33:30;19.40;90.60
41262;DHT22;29629;52.532;13.352;2023-03-01T09:35:57;19.50;89.90
41262;DHT22;29629;52.532;13.352;2023-03-01T09:38:26;19.50;88.50
41262;DHT22;29629;52.532;13.352;2023-03-01T09:40:53;20.00;87.10
41262;DHT22;29629;52.532;13.352;2023-03-01T09:43:21;20.00;85.40
41262;DHT22;29629;52.532;13.352;2023-03-01T09:45:50;19.90;85.10
41262;DHT22;29629;52.532;13.352;2023-03-01T09:48:19;20.10;85.10
41262;DHT22;29629;52.532;13.352;2023-03-01T09:50:48;20.20;83.00
41262;DHT22;29629;52.532;13.352;2023-03-01T09:53:16;20.30;83.20
41262;DHT22;29629;52.532;13.352;2023-03-01T09:55:45;20.40;81.90
41262;DHT22;29629;52.532;13.352;2023-03-01T10:00:53;20.50;81.60
41262;DHT22;29629;52.532;13.352;2023-03-01T10:03:24;20.30;80.80
41262;DHT22;29629;52.532;13.352;2023-03-01T10:05:56;20.70;79.50
41262;DHT22;29629;52.532;13.352;2023-03-01T10:08:26;20.60;79.60
41262;DHT22;29629;52.532;13.352;2023-03-01T10:10:57;20.60;80.40
41262;DHT22;29629;52.532;13.352;2023-03-01T10:13:26;20.40;81.00
41262;DHT22;29629;52.532;13.352;2023-03-01T10:15:55;19.70;80.50
41262;DHT22;29629;52.532;13.352;2023-03-01T10:18:23;19.20;83.20
41262;DHT22;29629;52.532;13.352;2023-03-01T10:20:52;18.20;84.30
41262;DHT22;29629;52.532;13.352;2023-03-01T10:23:19;16.60;85.10
41262;DHT22;29629;52.532;13.352;2023-03-01T10:25:47;16.10;86.40
41262;DHT22;29629;52.532;13.352;2023-03-01T10:28:20;15.60;85.50
41262;DHT22;29629;52.532;13.352;2023-03-01T10:30:49;16.10;88.10
41262;DHT22;29629;52.532;13.352;2023-03-01T10:33:16;16.20;87.00
41262;DHT22;29629;52.532;13.352;2023-03-01T10:35:44;16.20;86.80
41262;DHT22;29629;52.532;13.352;2023-03-01T10:38:12;16.60;85.30
41262;DHT22;29629;52.532;13.352;2023-03-01T10:40:50;16.50;85.20
41262;DHT22;29629;52.532;13.352;2023-03-01T10:43:18;16.70;86.10
41262;DHT22;29629;52.532;13.352;2023-03-01T10:45:45;16.90;86.20
41262;DHT22;29629;52.532;13.352;2023-03-01T10:48:13;17.20;84.30
41262;DHT22;29629;52.532;13.352;2023-03-01T10:50:41;17.20;84.30
41262;DHT22;29629;52.532;13.352;2023-03-01T10:53:18;17.20;84.30
41262;DHT22;29629;52.532;13.352;2023-03-01T10:55:46;17.50;83.90
41262;DHT22;29629;52.532;13.352;2023-03-01T10:58:17;17.60;82.90
41262;DHT22;29629;52.532;13.352;2023-03-01T11:00:48;17.80;82.70
41262;DHT22;29629;52.532;13.352;2023-03-01T11:03:16;18.40;81.40
41262;DHT22;29629;52.532;13.352;2023-03-01T11:05:54;18.90;78.70
41262;DHT22;29629;52.532;13.352;2023-03-01T11:08:32;18.60;80.00
41262;DHT22;29629;52.532;13.352;2023-03-01T11:11:06;18.50;79.40
41262;DHT22;29629;52.532;13.352;2023-03-01T11:13:33;18.60;81.70
41262;DHT22;29629;52.532;13.352;2023-03-01T11:16:03;18.30;80.00
41262;DHT22;29629;52.532;13.352;2023-03-01T11:18:32;17.90;81.20
41262;DHT22;29629;52.532;13.352;2023-03-01T11:20:59;17.90;80.00
41262;DHT22;29629;52.532;13.352;2023-03-01T11:23:27;18.30;79.80
41262;DHT22;29629;52.532;13.352;2023-03-01T11:25:55;18.60;79.00
41262;DHT22;29629;52.532;13.352;2023-03-01T11:28:22;18.50;80.10
41262;DHT22;29629;52.532;13.352;2023-03-01T11:30:50;18.60;79.20
41262;DHT22;29629;52.532;13.352;2023-03-01T11:33:23;18.80;78.90
41262;DHT22;29629;52.532;13.352;2023-03-01T11:36:00;18.90;80.20
41262;DHT22;29629;52.532;13.352;2023-03-01T11:38:28;18.90;78.20
41262;DHT22;29629;52.532;13.352;2023-03-01T11:40:57;19.00;77.30
41262;DHT22;29629;52.532;13.352;2023-03-01T11:43:27;19.00;77.40
41262;DHT22;29629;52.532;13.352;2023-03-01T11:46:05;18.60;75.10
41262;DHT22;29629;52.532;13.352;2023-03-01T11:48:47;18.90;76.80
41262;DHT22;29629;52.532;13.352;2023-03-01T11:51:17;19.10;76.60
41262;DHT22;29629;52.532;13.352;2023-03-01T11:53:50;18.90;77.40
41262;DHT22;29629;52.532;13.352;2023-03-01T11:56:25;19.20;76.60
41262;DHT22;29629;52.532;13.352;2023-03-01T11:59:02;19.20;76.10
41262;DHT22;29629;52.532;13.352;2023-03-01T12:01:36;19.20;77.40
41262;DHT22;29629;52.532;13.352;2023-03-01T12:04:18;19.40;74.70
41262;DHT22;29629;52.532;13.352;2023-03-01T12:06:50;19.50;74.60
41262;DHT22;29629;52.532;13.352;2023-03-01T12:09:22;19.80;73.90
41262;DHT22;29629;52.532;13.352;2023-03-01T12:11:56;19.70;72.70
41262;DHT22;29629;52.532;13.352;2023-03-01T12:14:30;19.80;74.50
41262;DHT22;29629;52.532;13.352;2023-03-01T12:17:07;19.80;73.10
41262;DHT22;29629;52.532;13.352;2023-03-01T12:19:43;19.70;74.30
41262;DHT22;29629;52.532;13.352;2023-03-01T12:22:17;19.60;73.40
41262;DHT22;29629;52.532;13.352;2023-03-01T12:24:51;19.40;72.90
41262;DHT22;29629;52.532;13.352;2023-03-01T12:27:26;19.00;72.20
41262;DHT22;29629;52.532;13.352;2023-03-01T12:29:59;19.20;74.60
41262;DHT22;29629;52.532;13.352;2023-03-01T12:32:34;19.50;74.50
41262;DHT22;29629;52.532;13.352;2023-03-01T12:37:49;19.60;72.00
41262;DHT22;29629;52.532;13.352;2023-03-01T12:40:23;19.80;73.40
41262;DHT22;29629;52.532;13.352;2023-03-01T12:42:56;19.90;71.80
41262;DHT22;29629;52.532;13.352;2023-03-01T12:45:46;19.70;73.20
41262;DHT22;29629;52.532;13.352;2023-03-01T12:48:19;19.50;71.70
41262;DHT22;29629;52.532;13.352;2023-03-01T12:50:49;19.50;69.90
41262;DHT22;29629;52.532;13.352;2023-03-01T12:53:21;19.10;69.00
41262;DHT22;29629;52.532;13.352;2023-03-01T12:55:49;18.30;74.10
41262;DHT22;29629;52.532;13.352;2023-03-01T12:58:20;18.60;72.70
41262;DHT22;29629;52.532;13.352;2023-03-01T13:00:52;18.70;72.30
41262;DHT22;29629;52.532;13.352;2023-03-01T13:03:25;18.90;71.20
41262;DHT22;29629;52.532;13.352;2023-03-01T13:05:59;18.90;71.40
41262;DHT22;29629;52.532;13.352;2023-03-01T13:08:31;18.50;70.40
41262;DHT22;29629;52.532;13.352;2023-03-01T13:11:02;18.70;72.10
41262;DHT22;29629;52.532;13.352;2023-03-01T13:13:29;18.80;71.60
41262;DHT22;29629;52.532;13.352;2023-03-01T13:15:56;18.70;71.20
41262;DHT22;29629;52.532;13.352;2023-03-01T13:18:29;18.60;70.50
41262;DHT22;29629;52.532;13.352;2023-03-01T13:20:57;18.20;72.00
41262;DHT22;29629;52.532;13.352;2023-03-01T13:23:25;17.80;71.10
41262;DHT22;29629;52.532;13.352;2023-03-01T13:26:08;17.60;71.20
41262;DHT22;29629;52.532;13.352;2023-03-01T13:34:03;16.30;73.90
41262;DHT22;29629;52.532;13.352;2023-03-01T13:36:48;15.60;74.70
41262;DHT22;29629;52.532;13.352;2023-03-01T13:39:27;15.30;75.10
41262;DHT22;29629;52.532;13.352;2023-03-01T13:41:58;14.90;76.90
41262;DHT22;29629;52.532;13.352;2023-03-01T13:44:29;14.60;77.70
41262;DHT22;29629;52.532;13.352;2023-03-01T13:46:58;14.40;77.90
41262;DHT22;29629;52.532;13.352;2023-03-01T13:49:27;14.20;78.70
41262;DHT22;29629;52.532;13.352;2023-03-01T13:51:54;14.10;78.80
41262;DHT22;29629;52.532;13.352;2023-03-01T13:54:23;13.90;79.10
41262;DHT22;29629;52.532;13.352;2023-03-01T13:56:51;13.60;80.10
41262;DHT22;29629;52.532;13.352;2023-03-01T13:59:20;13.20;80.60
41262;DHT22;29629;52.532;13.352;2023-03-01T14:01:51;12.90;82.70
41262;DHT22;29629;52.532;13.352;2023-03-01T14:04:19;12.80;80.80
41262;DHT22;29629;52.532;13.352;2023-03-01T14:06:46;12.60;78.90
41262;DHT22;29629;52.532;13.352;2023-03-01T14:09:14;12.30;78.20
41262;DHT22;29629;52.532;13.352;2023-03-01T14:11:50;12.30;80.40
41262;DHT22;29629;52.532;13.352;2023-03-01T14:14:38;12.20;79.30
41262;DHT22;29629;52.532;13.352;2023-03-01T14:17:12;12.00;82.30
41262;DHT22;29629;52.532;13.352;2023-03-01T14:19:42;11.80;83.50
41262;DHT22;29629;52.532;13.352;2023-03-01T14:22:16;11.60;83.60
41262;DHT22;29629;52.532;13.352;2023-03-01T14:24:46;11.60;85.80
41262;DHT22;29629;52.532;13.352;2023-03-01T14:27:14;11.40;84.90
41262;DHT22;29629;52.532;13.352;2023-03-01T14:29:42;11.30;87.50
41262;DHT22;29629;52.532;13.352;2023-03-01T14:32:10;11.20;86.20
41262;DHT22;29629;52.532;13.352;2023-03-01T14:34:42;11.20;87.30
41262;DHT22;29629;52.532;13.352;2023-03-01T14:37:17;11.00;86.60
41262;DHT22;29629;52.532;13.352;2023-03-01T14:39:44;11.00;87.70
41262;DHT22;29629;52.532;13.352;2023-03-01T14:42:11;10.90;88.70
41262;DHT22;29629;52.532;13.352;2023-03-01T14:44:40;10.80;90.30
41262;DHT22;29629;52.532;13.352;2023-03-01T14:47:11;10.80;90.00
41262;DHT22;29629;52.532;13.352;2023-03-01T14:49:39;10.70;90.70
41262;DHT22;29629;52.532;13.352;2023-03-01T14:52:07;10.60;90.20
41262;DHT22;29629;52.532;13.352;2023-03-01T14:54:36;10.60;89.20
41262;DHT22;29629;52.532;13.352;2023-03-01T14:57:03;10.50;90.20
41262;DHT22;29629;52.532;13.352;2023-03-01T14:59:32;10.30;89.30
41262;DHT22;29629;52.532;13.352;2023-03-01T15:01:59;10.20;90.30
41262;DHT22;29629;52.532;13.352;2023-03-01T15:04:27;10.20;89.20
41262;DHT22;29629;52.532;13.352;2023-03-01T15:06:55;10.10;90.60
41262;DHT22;29629;52.532;13.352;2023-03-01T15:09:30;10.00;90.70
41262;DHT22;29629;52.532;13.352;2023-03-01T15:11:58;9.90;90.70
41262;DHT22;29629;52.532;13.352;2023-03-01T15:14:26;9.90;91.50
41262;DHT22;29629;52.532;13.352;2023-03-01T15:16:53;9.80;91.50
41262;DHT22;29629;52.532;13.352;2023-03-01T15:19:27;9.90;92.20
41262;DHT22;29629;52.532;13.352;2023-03-01T15:21:56;9.80;92.30
41262;DHT22;29629;52.532;13.352;2023-03-01T15:24:24;9.70;92.20
41262;DHT22;29629;52.532;13.352;2023-03-01T15:26:53;9.70;91.90
41262;DHT22;29629;52.532;13.352;2023-03-01T15:29:23;9.60;92.60
41262;DHT22;29629;52.532;13.352;2023-03-01T15:31:55;9.60;93.10
41262;DHT22;29629;52.532;13.352;2023-03-01T15:34:23;9.60;93.50
41262;DHT22;29629;52.532;13.352;2023-03-01T15:36:50;9.50;93.20
41262;DHT22;29629;52.532;13.352;2023-03-01T15:39:29;9.40;93.30
41262;DHT22;29629;52.532;13.352;2023-03-01T15:41:57;9.50;93.50
41262;DHT22;29629;52.532;13.352;2023-03-01T15:44:25;9.40;93.60